Aviation Digital Data Service (ADDS)

Output produced by METARs form (0622 UTC 23 August 2017)
found at http://aviationweather.gov/adds/metars/
 
KGSO 230529Z 2306/2406 22008KT P6SM FEW100 FEW250 
     FM231800 29004KT P6SM SCT040 BKN250 
     TEMPO 2318/2321 3SM SHRA BKN050 
     FM232200 36005KT P6SM OVC100